createdAt,value
2018-04-22T00:09:06.759Z,4
2018-04-22T00:19:06.810Z,5
2018-04-22T00:29:06.769Z,5
2018-04-22T00:39:06.847Z,6
2018-04-22T00:49:06.769Z,7
2018-04-22T00:59:06.854Z,7
2018-04-22T01:09:06.822Z,5
2018-04-22T01:19:06.789Z,6
2018-04-22T01:29:06.798Z,6
2018-04-22T01:39:06.870Z,7
2018-04-22T01:49:06.850Z,6
2018-04-22T01:59:06.805Z,6
2018-04-22T02:09:06.882Z,5
2018-04-22T02:19:06.858Z,6
2018-04-22T02:29:06.918Z,7
2018-04-22T02:39:06.902Z,5
2018-04-22T02:49:06.941Z,5
2018-04-22T02:59:06.915Z,9
2018-04-22T03:09:06.972Z,8
2018-04-22T03:19:06.948Z,6
2018-04-22T03:29:06.980Z,6
2018-04-22T03:39:06.916Z,6
2018-04-22T03:49:06.994Z,7
2018-04-22T03:59:06.979Z,6
2018-04-22T04:09:07.047Z,8
2018-04-22T04:19:06.975Z,7
2018-04-22T04:29:06.913Z,6
2018-04-22T04:39:06.998Z,7
2018-04-22T04:49:06.935Z,8
2018-04-22T04:59:07.004Z,8
2018-04-22T05:09:07.024Z,7
2018-04-22T05:19:07.077Z,9
2018-04-22T05:29:07.046Z,12
2018-04-22T05:39:07.092Z,8
2018-04-22T05:49:07.057Z,6
2018-04-22T05:59:07.152Z,7
2018-04-22T06:09:07.110Z,9
2018-04-22T06:19:07.150Z,8
2018-04-22T06:29:07.094Z,10
2018-04-22T06:39:07.151Z,10
2018-04-22T06:49:07.138Z,12
2018-04-22T06:59:07.196Z,10
2018-04-22T07:09:07.180Z,12
2018-04-22T07:19:07.186Z,9
2018-04-22T07:29:07.213Z,11
2018-04-22T07:39:07.092Z,12
2018-04-22T07:49:07.192Z,11
2018-04-22T07:59:07.176Z,12
2018-04-22T08:09:07.285Z,12
2018-04-22T08:19:07.729Z,13
2018-04-22T08:29:08.073Z,14
2018-04-22T08:39:07.236Z,16
2018-04-22T08:49:07.194Z,15
2018-04-22T08:59:07.666Z,15
2018-04-22T09:09:09.318Z,16
2018-04-22T09:19:07.304Z,19
2018-04-22T09:29:39.148Z,19
2018-04-22T09:39:07.250Z,19
2018-04-22T09:49:07.456Z,23
2018-04-22T09:59:07.271Z,22
2018-04-22T10:09:07.221Z,23
2018-04-22T10:19:07.428Z,22
2018-04-22T10:29:12.613Z,23
2018-04-22T10:39:07.446Z,24
2018-04-22T10:49:08.332Z,26
2018-04-22T10:59:07.453Z,20
2018-04-22T11:09:19.686Z,20
2018-04-22T11:19:08.109Z,18
2018-04-22T11:29:07.297Z,18
2018-04-22T11:39:07.212Z,16
2018-04-22T11:49:07.200Z,18
2018-04-22T11:59:07.205Z,14
2018-04-22T12:09:07.282Z,8
2018-04-22T12:19:07.327Z,9
2018-04-22T12:29:07.443Z,9
2018-04-22T12:39:07.327Z,9
2018-04-22T12:49:07.506Z,8
2018-04-22T12:59:07.317Z,10
2018-04-22T13:09:07.362Z,12
2018-04-22T13:19:07.286Z,7
2018-04-22T13:29:07.327Z,10
2018-04-22T13:39:07.294Z,12
2018-04-22T13:49:07.337Z,9
2018-04-22T13:59:07.336Z,9
2018-04-22T14:09:07.307Z,8
2018-04-22T14:19:07.327Z,11
2018-04-22T14:29:07.301Z,8
2018-04-22T14:39:07.265Z,12
2018-04-22T14:49:07.332Z,8
2018-04-22T14:59:07.354Z,9
2018-04-22T15:09:07.317Z,8
2018-04-22T15:19:07.389Z,4
2018-04-22T15:29:07.849Z,7
2018-04-22T15:39:07.400Z,8
2018-04-22T15:49:07.577Z,5
2018-04-22T15:59:07.339Z,8
2018-04-22T16:09:07.555Z,6
2018-04-22T16:19:07.312Z,5
2018-04-22T16:29:07.934Z,5
2018-04-22T16:39:07.282Z,5
2018-04-22T16:49:07.391Z,3
2018-04-22T16:59:07.280Z,7
2018-04-22T17:09:07.660Z,3
2018-04-22T17:19:07.327Z,3
2018-04-22T17:29:08.105Z,3
2018-04-22T17:39:07.470Z,4
2018-04-22T17:49:07.532Z,4
2018-04-22T17:59:07.575Z,5
2018-04-22T18:09:07.467Z,4
2018-04-22T18:19:07.304Z,7
2018-04-22T18:29:07.624Z,4
2018-04-22T18:39:07.985Z,6
2018-04-22T18:49:12.407Z,9
2018-04-22T18:59:07.453Z,9
2018-04-22T19:09:11.168Z,10
2018-04-22T19:19:08.172Z,10
2018-04-22T19:29:07.528Z,13
2018-04-22T19:39:07.914Z,13
2018-04-22T19:49:08.531Z,14
2018-04-22T19:59:07.432Z,17
2018-04-22T20:09:08.261Z,17
2018-04-22T20:19:07.562Z,17
2018-04-22T20:29:07.546Z,18
2018-04-22T20:39:10.147Z,21
2018-04-22T20:49:07.509Z,21
2018-04-22T20:59:07.594Z,25
2018-04-22T21:09:07.825Z,22
2018-04-22T21:19:07.588Z,27
2018-04-22T21:29:07.561Z,31
2018-04-22T21:39:07.678Z,31
2018-04-22T21:49:07.736Z,30
2018-04-22T21:59:07.317Z,32
2018-04-22T22:09:07.375Z,36
2018-04-22T22:19:07.884Z,37
2018-04-22T22:35:35.480Z,37
2018-04-22T22:39:07.298Z,39
2018-04-22T22:49:07.328Z,39
2018-04-22T22:59:07.365Z,39
2018-04-22T23:09:26.502Z,41
2018-04-22T23:19:20.047Z,40
2018-04-22T23:29:19.732Z,38
2018-04-22T23:39:07.282Z,42
2018-04-22T23:49:07.371Z,45
2018-04-22T23:59:07.912Z,49
